sensor_id;sensor_type;location;lat;lon;timestamp;temperature;humidity
6552;DHT22;3309;48.708;9.290;2022-12-17T01:20:02;-6.40;99.90
6552;DHT22;3309;48.708;9.290;2022-12-17T01:22:46;-6.70;99.90
6552;DHT22;3309;48.708;9.290;2022-12-17T01:25:30;-6.80;99.90
6552;DHT22;3309;48.708;9.290;2022-12-17T01:28:21;-7.00;99.90
6552;DHT22;3309;48.708;9.290;2022-12-17T01:31:05;-7.20;1.00
6552;DHT22;3309;48.708;9.290;2022-12-17T01:33:49;-7.30;99.90
6552;DHT22;3309;48.708;9.290;2022-12-17T01:36:33;-7.60;1.00
6552;DHT22;3309;48.708;9.290;2022-12-17T01:39:17;-7.50;95.40
6552;DHT22;3309;48.708;9.290;2022-12-17T01:42:01;-7.50;99.90
6552;DHT22;3309;48.708;9.290;2022-12-17T01:44:54;-7.30;99.90
6552;DHT22;3309;48.708;9.290;2022-12-17T01:50:31;-7.20;1.00
6552;DHT22;3309;48.708;9.290;2022-12-17T01:53:18;-7.30;1.00
6552;DHT22;3309;48.708;9.290;2022-12-17T01:56:05;-7.30;1.00
6552;DHT22;3309;48.708;9.290;2022-12-17T01:58:49;-7.30;1.00
6552;DHT22;3309;48.708;9.290;2022-12-17T02:01:33;-7.30;1.00
6552;DHT22;3309;48.708;9.290;2022-12-17T02:04:17;-7.20;99.90
6552;DHT22;3309;48.708;9.290;2022-12-17T02:10:27;-7.30;1.00
6552;DHT22;3309;48.708;9.290;2022-12-17T02:13:19;-7.40;99.90
6552;DHT22;3309;48.708;9.290;2022-12-17T02:19:39;-7.20;99.90
6552;DHT22;3309;48.708;9.290;2022-12-17T02:25:36;-7.10;99.90
6552;DHT22;3309;48.708;9.290;2022-12-17T02:28:23;-6.90;1.00
6552;DHT22;3309;48.708;9.290;2022-12-17T02:31:08;-7.00;1.00
6552;DHT22;3309;48.708;9.290;2022-12-17T02:33:53;-7.00;1.00
6552;DHT22;3309;48.708;9.290;2022-12-17T02:36:37;-7.00;99.90
6552;DHT22;3309;48.708;9.290;2022-12-17T02:39:21;-6.90;1.00
6552;DHT22;3309;48.708;9.290;2022-12-17T02:42:06;-6.80;1.00
6552;DHT22;3309;48.708;9.290;2022-12-17T02:44:50;-6.80;1.00
6552;DHT22;3309;48.708;9.290;2022-12-17T02:47:34;-6.80;1.00
6552;DHT22;3309;48.708;9.290;2022-12-17T02:50:19;-7.00;99.90
6552;DHT22;3309;48.708;9.290;2022-12-17T02:53:03;-7.10;99.90
6552;DHT22;3309;48.708;9.290;2022-12-17T02:55:48;-7.30;1.00
6552;DHT22;3309;48.708;9.290;2022-12-17T02:58:32;-7.30;1.00
6552;DHT22;3309;48.708;9.290;2022-12-17T03:01:16;-7.30;99.90
6552;DHT22;3309;48.708;9.290;2022-12-17T03:04:00;-7.30;1.00
6552;DHT22;3309;48.708;9.290;2022-12-17T03:06:44;-7.30;1.00
6552;DHT22;3309;48.708;9.290;2022-12-17T03:09:28;-7.20;99.90
6552;DHT22;3309;48.708;9.290;2022-12-17T03:12:12;-7.10;99.90
6552;DHT22;3309;48.708;9.290;2022-12-17T03:14:56;-7.00;1.00
6552;DHT22;3309;48.708;9.290;2022-12-17T03:17:40;-6.90;1.00
6552;DHT22;3309;48.708;9.290;2022-12-17T03:20:24;-6.80;99.90
6552;DHT22;3309;48.708;9.290;2022-12-17T03:23:10;-6.60;99.90
6552;DHT22;3309;48.708;9.290;2022-12-17T03:25:58;-6.50;1.00
6552;DHT22;3309;48.708;9.290;2022-12-17T03:28:42;-6.40;1.00
6552;DHT22;3309;48.708;9.290;2022-12-17T03:31:26;-6.40;1.00
6552;DHT22;3309;48.708;9.290;2022-12-17T03:34:10;-6.40;1.00
6552;DHT22;3309;48.708;9.290;2022-12-17T03:36:54;-6.30;1.00
6552;DHT22;3309;48.708;9.290;2022-12-17T03:39:38;-6.20;1.00
6552;DHT22;3309;48.708;9.290;2022-12-17T03:42:22;-6.10;98.40
6552;DHT22;3309;48.708;9.290;2022-12-17T03:45:07;-5.90;61.00
6552;DHT22;3309;48.708;9.290;2022-12-17T03:47:51;-5.80;1.00
6552;DHT22;3309;48.708;9.290;2022-12-17T03:50:34;-5.70;1.00
6552;DHT22;3309;48.708;9.290;2022-12-17T03:53:19;-5.60;1.00
6552;DHT22;3309;48.708;9.290;2022-12-17T03:56:03;-5.50;1.00
6552;DHT22;3309;48.708;9.290;2022-12-17T03:58:47;-5.50;99.90
6552;DHT22;3309;48.708;9.290;2022-12-17T04:01:31;-5.40;99.90
6552;DHT22;3309;48.708;9.290;2022-12-17T04:04:15;-5.30;99.90
6552;DHT22;3309;48.708;9.290;2022-12-17T04:06:59;-5.50;99.90
6552;DHT22;3309;48.708;9.290;2022-12-17T04:09:43;-5.50;99.90
6552;DHT22;3309;48.708;9.290;2022-12-17T04:12:27;-5.50;70.40
6552;DHT22;3309;48.708;9.290;2022-12-17T04:15:11;-5.40;99.90
6552;DHT22;3309;48.708;9.290;2022-12-17T04:17:55;-5.40;79.40
6552;DHT22;3309;48.708;9.290;2022-12-17T04:20:39;-5.30;99.90
6552;DHT22;3309;48.708;9.290;2022-12-17T04:23:23;-5.20;99.90
6552;DHT22;3309;48.708;9.290;2022-12-17T04:26:07;-5.20;99.90
6552;DHT22;3309;48.708;9.290;2022-12-17T04:28:51;-5.10;99.90
6552;DHT22;3309;48.708;9.290;2022-12-17T04:31:35;-5.10;1.00
6552;DHT22;3309;48.708;9.290;2022-12-17T04:34:19;-5.10;99.90
6552;DHT22;3309;48.708;9.290;2022-12-17T04:37:03;-5.10;99.90
6552;DHT22;3309;48.708;9.290;2022-12-17T04:39:48;-5.00;99.90
6552;DHT22;3309;48.708;9.290;2022-12-17T04:42:32;-4.90;99.90
6552;DHT22;3309;48.708;9.290;2022-12-17T04:45:16;-4.90;99.90
6552;DHT22;3309;48.708;9.290;2022-12-17T04:48:05;-4.90;99.90
6552;DHT22;3309;48.708;9.290;2022-12-17T04:50:50;-4.80;99.90
6552;DHT22;3309;48.708;9.290;2022-12-17T04:53:34;-4.80;99.90
6552;DHT22;3309;48.708;9.290;2022-12-17T04:56:18;-4.70;99.90
6552;DHT22;3309;48.708;9.290;2022-12-17T04:59:02;-4.80;99.90
6552;DHT22;3309;48.708;9.290;2022-12-17T05:01:46;-4.80;1.00
6552;DHT22;3309;48.708;9.290;2022-12-17T05:04:33;-4.80;1.00
6552;DHT22;3309;48.708;9.290;2022-12-17T05:07:17;-4.70;1.00
6552;DHT22;3309;48.708;9.290;2022-12-17T05:10:01;-4.60;1.00
6552;DHT22;3309;48.708;9.290;2022-12-17T05:12:45;-4.60;99.90
6552;DHT22;3309;48.708;9.290;2022-12-17T05:15:29;-4.50;99.90
6552;DHT22;3309;48.708;9.290;2022-12-17T05:18:13;-4.40;8.20
6552;DHT22;3309;48.708;9.290;2022-12-17T05:20:57;-4.40;1.00
6552;DHT22;3309;48.708;9.290;2022-12-17T05:23:41;-4.30;6.00
6552;DHT22;3309;48.708;9.290;2022-12-17T05:26:27;-4.20;99.90
6552;DHT22;3309;48.708;9.290;2022-12-17T05:29:12;-4.20;1.00
6552;DHT22;3309;48.708;9.290;2022-12-17T05:31:56;-4.20;1.00
6552;DHT22;3309;48.708;9.290;2022-12-17T05:34:41;-4.10;1.00
6552;DHT22;3309;48.708;9.290;2022-12-17T05:37:25;-4.10;1.00
6552;DHT22;3309;48.708;9.290;2022-12-17T05:40:09;-4.10;1.00
6552;DHT22;3309;48.708;9.290;2022-12-17T05:43:02;-4.10;1.00
6552;DHT22;3309;48.708;9.290;2022-12-17T05:45:47;-4.10;99.90
6552;DHT22;3309;48.708;9.290;2022-12-17T05:48:32;-4.10;1.00
6552;DHT22;3309;48.708;9.290;2022-12-17T05:51:17;-4.10;1.00
6552;DHT22;3309;48.708;9.290;2022-12-17T05:54:01;-4.10;1.00
6552;DHT22;3309;48.708;9.290;2022-12-17T05:56:45;-4.00;1.00
6552;DHT22;3309;48.708;9.290;2022-12-17T05:59:29;-4.00;39.50
6552;DHT22;3309;48.708;9.290;2022-12-17T06:02:13;-3.90;1.00
6552;DHT22;3309;48.708;9.290;2022-12-17T06:05:14;-3.90;1.00
6552;DHT22;3309;48.708;9.290;2022-12-17T06:08:05;-3.90;1.00
6552;DHT22;3309;48.708;9.290;2022-12-17T06:10:50;-3.80;1.00
6552;DHT22;3309;48.708;9.290;2022-12-17T06:13:34;-3.80;1.00
6552;DHT22;3309;48.708;9.290;2022-12-17T06:16:18;-3.80;1.00
6552;DHT22;3309;48.708;9.290;2022-12-17T06:19:02;-3.90;1.00
6552;DHT22;3309;48.708;9.290;2022-12-17T06:21:49;-3.90;1.00
6552;DHT22;3309;48.708;9.290;2022-12-17T06:24:34;-4.00;1.00
6552;DHT22;3309;48.708;9.290;2022-12-17T06:27:18;-3.90;1.00
6552;DHT22;3309;48.708;9.290;2022-12-17T06:30:02;-3.80;1.00
6552;DHT22;3309;48.708;9.290;2022-12-17T06:32:46;-3.70;1.00
6552;DHT22;3309;48.708;9.290;2022-12-17T06:35:30;-3.70;1.00
6552;DHT22;3309;48.708;9.290;2022-12-17T06:38:15;-3.70;1.00
